Flight Track Log - Related Links

Times and Time Zones

All times are in EDT time to prevent confusion due to time zone crossing. See the SWA2054 flight status page for this flight to view local times or setup timezone preferences in your user account.


Time Position Orientation Groundspeed Altitude Reporting Facility
EDT Latitude Longitude Course Direction KTS MPH feet Rate Location/Type
Mon 07:09:06 AM 39.1667 -76.7333 180° South 176 203 2,000  Level Potomac TRACON
Mon 07:10:06 AM 39.1167 -76.7333 180° South 269 310 4,300 2,635 Climbing Potomac TRACON
Mon 07:12:15 AM 39.1286 -76.5094 86° East 285 328 10,300 2,400 Climbing Washington Center
Mon 07:13:16 AM 39.1381 -76.3836 84° East 319 367 11,900 1,884 Climbing Washington Center
Mon 07:14:16 AM 39.1492 -76.2419 84° East 362 417 14,100 2,250 Climbing Washington Center
Mon 07:15:16 AM 39.1708 -76.0922 79° East 401 461 16,400 2,370 Climbing Washington Center
Mon 07:16:15 AM 39.2378 -75.9775 53° Northeast 386 444 18,800 1,983 Climbing Washington Center
Mon 07:17:17 AM 39.3089 -75.8678 50° Northeast 391 450 20,400 1,750 Climbing Washington Center
Mon 07:18:15 AM 39.3842 -75.7500 50° Northeast 403 464 22,300 1,846 Climbing Washington Center
Mon 07:19:14 AM 39.4594 -75.6344 50° Northeast 423 487 24,000 1,500 Climbing Washington Center
Mon 07:20:15 AM 39.5386 -75.5081 51° Northeast 429 494 25,300 1,377 Climbing Washington Center
Mon 07:21:16 AM 39.6197 -75.3814 50° Northeast 441 507 26,800 1,636 Climbing Washington Center
Mon 07:22:16 AM 39.7006 -75.2544 50° Northeast 448 516 28,600 1,525 Climbing Washington Center
Mon 07:23:14 AM 39.7794 -75.1297 51° Northeast 448 516 29,800 1,273 Climbing Washington Center
Mon 07:24:28 AM 39.8739 -74.9742 52° Northeast 454 522 31,400 1,534 Climbing New York Center
Mon 07:25:27 AM 39.9553 -74.8519 49° Northeast 454 522 33,200 1,220 Climbing New York Center
Mon 07:26:26 AM 40.0300 -74.7422 48° Northeast 454 522 33,800 843 Climbing New York Center
Mon 07:27:28 AM 40.1114 -74.6167 50° Northeast 454 522 34,900 885 Climbing New York Center
Mon 07:28:28 AM 40.1925 -74.4908 50° Northeast 449 517 35,600 -102 Climbing New York Center
Mon 07:29:26 AM 40.2736 -74.3647 50° Northeast 449 517 34,700 -966 Descending New York Center
Mon 07:30:26 AM 40.3544 -74.2408 49° Northeast 449 517 33,700 -1,033 Descending New York Center
Mon 07:31:28 AM 40.4308 -74.1164 51° Northeast 443 510 32,600 -1,600 Descending New York Center
Mon 07:32:26 AM 40.5114 -73.9950 49° Northeast 443 510 30,500 -1,873 Descending New York Center
Mon 07:34:05 AM 40.6403 -73.7867 51° Northeast 461 531 27,700 -1,313 Descending Boston Center
Mon 07:35:06 AM 40.7375 -73.6336 50° Northeast 477 549 27,000 -336 Descending Boston Center
Mon 07:36:10 AM 40.8264 -73.4922 50° Northeast 470 541 27,000  Level Boston Center
Mon 07:37:10 AM 40.9094 -73.3647 49° Northeast 463 533 27,000  Level Boston Center
Mon 07:38:11 AM 40.9892 -73.2497 47° Northeast 459 528 27,000 -492 Level Boston Center
Mon 07:39:12 AM 41.0747 -73.1211 49° Northeast 463 533 26,000 -1,820 Descending Boston Center
Mon 07:40:13 AM 41.1561 -72.9992 48° Northeast 445 512 23,300 -2,033 Descending Boston Center
Mon 07:41:13 AM 41.2231 -72.8731 55° Northeast 426 490 21,900 -1,131 Descending Boston Center
Mon 07:42:15 AM 41.2775 -72.7114 66° East 425 489 21,000 -439 Descending Boston Center
Mon 07:43:16 AM 41.3278 -72.5733 64° Northeast 416 479 21,000  Level Boston Center
Mon 07:44:17 AM 41.3767 -72.4353 65° Northeast 415 478 21,000  Level Boston Center
Mon 07:45:17 AM 41.4250 -72.2961 65° Northeast 414 476 21,000  Level Boston Center
Mon 07:46:19 AM 41.4742 -72.1575 65° Northeast 414 476 21,000  Level Boston Center
Mon 07:47:19 AM 41.5231 -72.0175 65° Northeast 414 476 21,000  Level Boston Center
Mon 07:48:19 AM 41.5719 -71.8733 66° East 415 478 21,000  Level Boston Center
Mon 07:49:21 AM 41.6214 -71.7342 65° Northeast 416 479 21,000 -683 Level Boston Center
Mon 07:50:22 AM 41.6681 -71.5950 66° East 415 478 19,600 -2,213 Descending Boston Center
Mon 07:51:23 AM 41.7222 -71.4372 65° Northeast 395 455 16,500 -2,661 Descending Boston Center
Mon 07:52:26 AM 41.7747 -71.3133 60° Northeast 388 447 14,100 -2,371 Descending Boston Center
Mon 07:53:27 AM 41.8256 -71.1939 60° Northeast 373 429 11,600 -1,488 Descending Boston Center
Mon 07:54:27 AM 41.8714 -71.0875 60° Northeast 324 373 11,100 -595 Descending Boston Center
Mon 07:55:28 AM 41.9156 -70.9819 61° Northeast 302 348 10,400 -744 Descending Boston Center
Mon 07:56:28 AM 41.9603 -70.8986 54° Northeast 276 318 9,600 -843 Descending Boston Center
Mon 07:57:29 AM 41.9936 -70.8358 54° Northeast 239 275 8,700 -1,091 Descending Boston Center
Mon 07:58:29 AM 42.0358 -70.7706 49° Northeast 233 268 7,400 -1,240 Descending Boston Center
Mon 07:59:30 AM 42.0806 -70.7106 45° Northeast 231 266 6,200 -726 Descending Boston Center
Mon 08:00:33 AM 42.1214 -70.6586 43° Northeast 213 245 5,900 -148 Descending Boston Center
Mon 08:01:32 AM 42.1578 -70.6278 32° Northeast 186 214 5,900 -496 Level Boston Center
Mon 08:02:34 AM 42.1719 -70.6878 288° West 182 209 4,900 -984 Descending Boston Center
Mon 08:03:34 AM 42.1833 -70.7661 281° West 181 208 3,900 -934 Descending Boston Center
Mon 08:04:36 AM 42.2181 -70.8086 318° Northwest 175 201 3,000 -537 Descending Boston Center
Mon 08:05:37 AM 42.2494 -70.8528 314° West 162 186 2,800 -446 Descending Boston Center
Mon 08:06:37 AM 42.2800 -70.8931 316° Northwest 158 182 2,100 -744 Descending Boston Center
Mon 08:07:38 AM 42.3092 -70.9317 316° Northwest 153 176 1,300 -738 Descending Boston Center
Mon 08:08:39 AM 42.3347 -70.9633 318° Northwest 144 166 600 -590 Descending Boston Center
Mon 08:09:40 AM 42.3606 -70.9978 315° West 132 152 100 -492 Descending Boston Center
Mon 08:11:00 AM 42.3500 -71.0000 North  Level FlightAware Approximate

Login

Don't have an account? Register now (free) for customized features, flight alerts, and more!